Time;durP1;ratioP1;P1;durP2;ratioP2;P2;SDS_P1;SDS_P2;PMS_P1;PMS_P2;Temp;Humidity;BMP_temperature;BMP_pressure;BME280_temperature;BME280_humidity;BME280_pressure;Samples;Min_cycle;Max_cycle;Signal;HPM_P1;HPM_P2
2023/07/16 00:00:08;;;;;;;6.90;5.40;;;20.20;63.60;;;;;;4995162;28;20177;-72
2023/07/16 00:02:34;;;;;;;5.10;4.60;;;20.30;62.90;;;;;;4993525;28;20455;-72
2023/07/16 00:05:00;;;;;;;6.40;5.17;;;20.20;62.50;;;;;;4994905;28;20972;-72
2023/07/16 00:07:26;;;;;;;7.87;7.10;;;20.20;64.00;;;;;;4994906;28;20657;-72
2023/07/16 00:09:51;;;;;;;7.47;5.53;;;20.20;66.50;;;;;;4995365;28;20189;-72
2023/07/16 00:12:17;;;;;;;9.70;5.93;;;20.20;67.30;;;;;;4994480;28;21023;-72
2023/07/16 00:14:43;;;;;;;5.27;3.83;;;20.00;67.50;;;;;;4995024;28;20208;-73
2023/07/16 00:17:08;;;;;;;3.57;3.03;;;19.90;66.50;;;;;;4994637;28;20665;-73
2023/07/16 00:19:34;;;;;;;3.70;2.27;;;19.80;65.30;;;;;;4994966;28;20180;-72
2023/07/16 00:21:59;;;;;;;3.37;2.20;;;19.70;64.10;;;;;;4994534;28;20762;-72
2023/07/16 00:24:26;;;;;;;2.50;1.83;;;19.60;63.80;;;;;;4994794;28;20216;-73
2023/07/16 00:26:52;;;;;;;4.53;2.90;;;19.60;62.80;;;;;;4993471;28;20181;-72
2023/07/16 00:29:18;;;;;;;3.50;2.67;;;19.60;64.70;;;;;;4994711;28;20466;-72
2023/07/16 00:31:43;;;;;;;3.60;2.53;;;19.60;59.90;;;;;;4993813;28;20784;-72
2023/07/16 00:34:15;;;;;;;2.87;2.50;;;19.60;59.90;;;;;;4994349;28;20231;-72
2023/07/16 00:36:40;;;;;;;3.03;2.73;;;19.60;61.30;;;;;;4994577;28;20180;-72
2023/07/16 00:39:06;;;;;;;3.77;3.10;;;19.60;60.90;;;;;;4994233;28;20424;-72
2023/07/16 00:41:32;;;;;;;2.27;1.77;;;19.70;60.00;;;;;;4994516;28;20717;-73
2023/07/16 00:43:57;;;;;;;5.17;2.53;;;19.70;59.70;;;;;;4994074;28;20212;-72
2023/07/16 00:46:24;;;;;;;4.73;2.60;;;19.70;60.60;;;;;;4992872;28;20191;-72
2023/07/16 00:48:49;;;;;;;3.93;2.77;;;19.70;60.00;;;;;;4994216;28;20662;-73
2023/07/16 00:51:15;;;;;;;2.70;2.17;;;19.70;61.30;;;;;;4993992;28;20451;-72
2023/07/16 00:53:44;;;;;;;3.50;2.83;;;19.70;60.60;;;;;;4993807;28;20291;-73
2023/07/16 00:56:11;;;;;;;4.10;3.70;;;19.70;61.00;;;;;;4993987;28;20788;-73
2023/07/16 00:58:36;;;;;;;4.07;2.80;;;19.70;62.40;;;;;;4993750;28;20985;-72
2023/07/16 01:01:02;;;;;;;5.10;2.23;;;19.80;61.90;;;;;;4993938;28;20502;-72
2023/07/16 01:03:28;;;;;;;8.17;2.47;;;19.80;61.00;;;;;;4992333;28;20200;-72
2023/07/16 01:06:04;;;;;;;3.30;1.10;;;19.60;55.20;;;;;;4993812;28;20212;-72
2023/07/16 01:08:37;;;;;;;2.53;1.47;;;19.40;52.10;;;;;;4993923;28;20180;-72
2023/07/16 01:11:04;;;;;;;1.93;1.30;;;19.30;47.10;;;;;;4993943;28;20416;-72
2023/07/16 01:13:30;;;;;;;5.40;1.27;;;19.10;45.60;;;;;;4993279;28;20463;-72
2023/07/16 01:15:56;;;;;;;2.17;1.30;;;19.00;42.60;;;;;;4992394;28;20915;-72
2023/07/16 01:18:21;;;;;;;3.00;1.87;;;18.90;42.70;;;;;;4993498;28;20447;-72
2023/07/16 01:20:47;;;;;;;2.90;1.20;;;18.80;43.30;;;;;;4993747;28;20188;-72
2023/07/16 01:23:44;;;;;;;2.30;1.30;;;18.80;40.80;;;;;;4993079;28;20204;-72
2023/07/16 01:26:45;;;;;;;3.40;1.60;;;18.80;43.80;;;;;;4993561;28;20615;-73
2023/07/16 01:29:49;;;;;;;2.20;1.33;;;18.70;41.50;;;;;;4993644;28;20408;-72
2023/07/16 01:32:15;;;;;;;3.80;1.70;;;18.60;39.60;;;;;;4992685;28;20447;-72
2023/07/16 01:34:42;;;;;;;2.57;1.20;;;18.50;40.60;;;;;;4993426;28;20440;-72
2023/07/16 01:37:08;;;;;;;2.10;1.40;;;18.40;37.60;;;;;;4993152;28;20412;-72
2023/07/16 01:39:34;;;;;;;2.57;1.20;;;18.40;36.50;;;;;;4993158;28;20439;-72
2023/07/16 01:42:00;;;;;;;1.80;1.10;;;18.50;35.80;;;;;;4992948;28;20917;-72
2023/07/16 01:44:26;;;;;;;3.10;1.30;;;18.50;38.10;;;;;;4993122;28;20478;-73
2023/07/16 01:47:06;;;;;;;3.07;1.73;;;18.50;37.30;;;;;;4993088;28;20841;-72
2023/07/16 01:49:32;;;;;;;2.47;1.00;;;18.50;36.50;;;;;;4993045;28;20251;-73
2023/07/16 01:52:01;;;;;;;2.60;1.20;;;18.50;34.30;;;;;;4992790;28;20420;-72
2023/07/16 01:54:27;;;;;;;2.27;1.33;;;18.50;38.00;;;;;;4993113;28;20841;-72
2023/07/16 01:56:52;;;;;;;2.00;1.13;;;18.50;39.70;;;;;;4992985;28;20447;-72
2023/07/16 01:59:18;;;;;;;2.53;1.53;;;18.50;39.10;;;;;;4993005;28;20187;-72
2023/07/16 02:01:43;;;;;;;2.83;1.33;;;18.60;40.00;;;;;;4992659;28;20177;-71
2023/07/16 02:04:09;;;;;;;2.33;1.33;;;18.60;38.60;;;;;;4992797;28;20204;-72
2023/07/16 02:06:34;;;;;;;2.27;1.33;;;18.60;39.00;;;;;;4992825;28;20252;-71
2023/07/16 02:09:00;;;;;;;2.53;1.30;;;18.60;40.80;;;;;;4992808;28;20200;-71
2023/07/16 02:11:25;;;;;;;2.40;1.37;;;18.60;40.40;;;;;;4992926;28;20172;-72
2023/07/16 02:13:51;;;;;;;2.07;1.03;;;18.60;41.40;;;;;;4992924;28;20216;-72
2023/07/16 02:16:17;;;;;;;3.03;1.00;;;18.60;41.20;;;;;;4992671;28;20215;-72
2023/07/16 02:18:43;;;;;;;1.90;1.00;;;18.50;41.90;;;;;;4991275;28;20573;-71
2023/07/16 02:21:08;;;;;;;2.10;1.20;;;18.50;42.10;;;;;;4992474;28;20408;-72
2023/07/16 02:23:34;;;;;;;2.90;1.57;;;18.60;42.50;;;;;;4992163;28;20247;-72
2023/07/16 02:26:00;;;;;;;2.17;1.10;;;18.60;41.70;;;;;;4992667;28;20211;-71
2023/07/16 02:28:26;;;;;;;2.07;1.47;;;18.50;41.80;;;;;;4992532;28;20188;-71
2023/07/16 02:30:51;;;;;;;2.50;1.67;;;18.60;42.10;;;;;;4992412;28;20698;-72
2023/07/16 02:33:17;;;;;;;2.40;1.37;;;18.60;43.60;;;;;;4992173;28;20196;-72
2023/07/16 02:35:48;;;;;;;3.40;1.40;;;18.60;43.50;;;;;;4991155;28;20314;-71
2023/07/16 02:38:14;;;;;;;2.50;1.30;;;18.60;43.20;;;;;;4992418;28;20185;-72
2023/07/16 02:40:44;;;;;;;3.50;1.53;;;18.60;42.90;;;;;;4992427;28;20787;-71
2023/07/16 02:43:10;;;;;;;1.80;1.10;;;18.50;42.50;;;;;;4992076;28;20533;-72
2023/07/16 02:45:35;;;;;;;1.87;0.97;;;18.40;43.70;;;;;;4992221;28;20491;-72
2023/07/16 02:48:01;;;;;;;2.63;1.30;;;18.30;44.40;;;;;;4992225;28;20177;-72
2023/07/16 02:50:27;;;;;;;2.50;1.60;;;18.30;46.30;;;;;;4992465;28;20175;-72
2023/07/16 02:52:52;;;;;;;2.27;1.40;;;18.20;47.10;;;;;;4991961;28;20523;-73
2023/07/16 02:55:18;;;;;;;2.20;1.33;;;18.10;47.10;;;;;;4993816;28;20234;-72
2023/07/16 02:57:44;;;;;;;2.20;1.13;;;18.20;47.60;;;;;;4996137;28;20272;-71
2023/07/16 03:00:10;;;;;;;3.10;1.40;;;18.20;47.80;;;;;;4994737;28;20191;-72
2023/07/16 03:02:35;;;;;;;1.70;1.17;;;18.20;47.10;;;;;;4995689;28;20200;-72
2023/07/16 03:05:01;;;;;;;2.60;1.70;;;18.20;48.70;;;;;;4995834;28;20454;-72
2023/07/16 03:07:26;;;;;;;1.80;1.07;;;18.30;48.00;;;;;;4995894;28;20172;-71
2023/07/16 03:09:52;;;;;;;2.40;1.20;;;18.40;47.00;;;;;;4996004;28;20176;-71
2023/07/16 03:12:18;;;;;;;2.10;1.37;;;18.40;47.90;;;;;;4995358;28;20200;-72
2023/07/16 03:14:43;;;;;;;2.00;1.27;;;18.40;45.30;;;;;;4994377;28;20327;-73
2023/07/16 03:17:09;;;;;;;1.93;1.00;;;18.40;44.00;;;;;;4995651;28;20528;-71
2023/07/16 03:19:34;;;;;;;2.30;1.50;;;18.30;43.60;;;;;;4995794;28;20196;-72
2023/07/16 03:22:00;;;;;;;2.30;1.40;;;18.30;44.60;;;;;;4995303;28;20173;-71
2023/07/16 03:24:25;;;;;;;2.47;1.50;;;18.30;44.80;;;;;;4994240;28;20215;-72
2023/07/16 03:26:51;;;;;;;2.07;1.30;;;18.30;46.10;;;;;;4994471;28;20178;-71
2023/07/16 03:29:16;;;;;;;3.00;1.67;;;18.30;46.00;;;;;;4995579;28;20218;-71
2023/07/16 03:31:42;;;;;;;2.87;1.40;;;18.30;45.40;;;;;;4995238;28;20229;-72
2023/07/16 03:34:07;;;;;;;2.10;1.70;;;18.40;45.40;;;;;;4995285;28;20254;-71
2023/07/16 03:36:33;;;;;;;2.60;1.83;;;18.40;43.70;;;;;;4995190;28;20666;-71
2023/07/16 03:38:58;;;;;;;2.60;1.30;;;18.40;43.70;;;;;;4995397;28;20180;-71
2023/07/16 03:41:24;;;;;;;4.77;1.80;;;18.40;43.40;;;;;;4995075;28;20180;-72
2023/07/16 03:43:50;;;;;;;2.03;1.20;;;18.50;41.40;;;;;;4995138;28;20200;-71
2023/07/16 03:46:15;;;;;;;2.40;1.13;;;18.50;41.30;;;;;;4995064;28;20269;-71
2023/07/16 03:48:41;;;;;;;1.90;1.00;;;18.50;40.60;;;;;;4995033;28;20486;-71
2023/07/16 03:51:06;;;;;;;2.20;1.20;;;18.40;40.60;;;;;;4995016;28;20521;-71
2023/07/16 03:53:32;;;;;;;2.10;1.40;;;18.50;40.70;;;;;;4994661;28;20199;-71
2023/07/16 03:55:58;;;;;;;2.10;1.30;;;18.50;38.50;;;;;;4994950;28;20173;-71
2023/07/16 03:58:23;;;;;;;2.10;1.30;;;18.30;33.70;;;;;;4994838;28;20177;-71
2023/07/16 04:00:49;;;;;;;2.20;1.23;;;18.30;33.70;;;;;;4994858;28;20219;-72
2023/07/16 04:03:14;;;;;;;2.23;1.43;;;18.30;35.00;;;;;;4994587;28;20207;-72
2023/07/16 04:05:40;;;;;;;3.37;1.50;;;18.30;33.00;;;;;;4993586;28;20240;-70
2023/07/16 04:08:06;;;;;;;3.80;1.80;;;18.20;32.10;;;;;;4994724;28;20251;-70
2023/07/16 04:10:31;;;;;;;2.47;1.23;;;18.10;32.90;;;;;;4994832;28;20172;-71
2023/07/16 04:12:57;;;;;;;3.47;1.40;;;18.10;32.90;;;;;;4994232;28;20292;-71
2023/07/16 04:15:22;;;;;;;3.17;1.13;;;18.10;32.90;;;;;;4994674;28;20180;-71
2023/07/16 04:17:48;;;;;;;2.63;1.20;;;18.10;30.90;;;;;;4994632;28;20733;-71
2023/07/16 04:20:14;;;;;;;2.20;1.40;;;18.20;31.80;;;;;;4993497;28;20216;-71
2023/07/16 04:22:39;;;;;;;2.43;1.13;;;18.20;31.10;;;;;;4994214;28;20201;-71
2023/07/16 04:25:05;;;;;;;4.20;1.80;;;18.20;32.30;;;;;;4994485;28;20290;-71
2023/07/16 04:27:31;;;;;;;2.90;1.63;;;18.20;32.40;;;;;;4994332;28;20474;-71
2023/07/16 04:29:56;;;;;;;2.60;1.27;;;18.10;30.00;;;;;;4994438;28;20165;-70
2023/07/16 04:32:22;;;;;;;2.40;0.93;;;18.20;30.40;;;;;;4992777;28;20675;-71
2023/07/16 04:34:48;;;;;;;2.63;1.87;;;18.30;30.70;;;;;;4994260;28;20681;-70
2023/07/16 04:37:13;;;;;;;2.17;1.33;;;18.20;29.00;;;;;;4992866;28;20435;-72
2023/07/16 04:39:39;;;;;;;2.30;1.53;;;18.10;30.00;;;;;;4994148;28;20611;-71
2023/07/16 04:42:05;;;;;;;4.23;2.00;;;18.10;31.70;;;;;;4993705;28;20176;-70
2023/07/16 04:44:30;;;;;;;2.47;1.40;;;18.10;32.30;;;;;;4992712;28;20578;-70
2023/07/16 04:46:56;;;;;;;2.87;1.67;;;18.00;30.20;;;;;;4994106;28;20246;-72
2023/07/16 04:49:22;;;;;;;4.30;1.50;;;18.00;29.80;;;;;;4994042;28;20181;-71
2023/07/16 04:51:47;;;;;;;2.70;1.67;;;18.00;30.10;;;;;;4992763;28;20752;-71
2023/07/16 04:54:13;;;;;;;4.63;1.70;;;17.90;30.80;;;;;;4994280;28;20295;-72
2023/07/16 04:56:38;;;;;;;5.00;1.90;;;17.90;31.00;;;;;;4993986;28;20187;-71
2023/07/16 04:59:04;;;;;;;2.30;1.33;;;17.90;29.90;;;;;;4992440;28;20180;-72
2023/07/16 05:01:30;;;;;;;3.67;1.60;;;17.90;29.90;;;;;;4993804;28;20181;-72
2023/07/16 05:03:55;;;;;;;3.40;1.47;;;17.90;31.50;;;;;;4993464;28;20678;-72
2023/07/16 05:06:21;;;;;;;3.13;1.30;;;17.90;29.30;;;;;;4993577;28;20172;-72
2023/07/16 05:08:46;;;;;;;4.57;1.60;;;17.90;28.90;;;;;;4992660;28;20181;-73
2023/07/16 05:11:12;;;;;;;6.33;1.50;;;18.00;29.20;;;;;;4993547;28;20177;-72
2023/07/16 05:13:38;;;;;;;4.67;1.77;;;18.20;28.30;;;;;;4993087;28;20208;-72
2023/07/16 05:16:04;;;;;;;3.70;1.20;;;18.40;28.40;;;;;;4993485;28;20462;-72
2023/07/16 05:18:29;;;;;;;3.27;2.17;;;18.50;26.90;;;;;;4991923;28;20247;-72
2023/07/16 05:20:55;;;;;;;8.00;2.10;;;18.60;24.10;;;;;;4993494;28;20416;-71
2023/07/16 05:23:21;;;;;;;1.87;1.10;;;18.70;24.30;;;;;;4993095;28;20678;-72
2023/07/16 05:25:48;;;;;;;2.73;1.30;;;18.70;24.40;;;;;;4993370;28;20197;-73
2023/07/16 05:28:14;;;;;;;12.50;2.67;;;18.70;23.30;;;;;;4991955;28;20511;-72
2023/07/16 05:30:40;;;;;;;3.03;1.43;;;18.80;24.00;;;;;;4993226;28;20462;-71
2023/07/16 05:33:06;;;;;;;10.87;1.67;;;18.90;23.80;;;;;;4993010;28;20432;-72
2023/07/16 05:35:31;;;;;;;6.50;1.70;;;18.90;23.50;;;;;;4993284;28;20177;-72
2023/07/16 05:37:57;;;;;;;2.53;1.47;;;18.80;20.10;;;;;;4993223;28;20259;-72
2023/07/16 05:40:22;;;;;;;2.23;1.30;;;18.80;20.40;;;;;;4993189;28;20177;-72
2023/07/16 05:42:48;;;;;;;3.30;1.67;;;18.70;21.20;;;;;;4992584;28;20200;-72
2023/07/16 05:45:13;;;;;;;3.83;1.57;;;19.00;21.90;;;;;;4992954;28;20560;-73
2023/07/16 05:47:39;;;;;;;3.50;1.50;;;19.30;18.10;;;;;;4992911;28;20176;-72
2023/07/16 05:50:05;;;;;;;2.40;1.30;;;19.50;17.40;;;;;;4991669;28;20173;-72
2023/07/16 05:52:31;;;;;;;2.33;1.43;;;19.70;16.90;;;;;;4992774;28;20197;-71
2023/07/16 05:54:57;;;;;;;2.20;1.50;;;19.70;14.60;;;;;;4992880;28;20729;-71
2023/07/16 05:57:23;;;;;;;3.17;1.40;;;19.50;13.50;;;;;;4992892;28;20416;-71
2023/07/16 05:59:48;;;;;;;4.87;1.37;;;19.50;15.20;;;;;;4993337;28;20189;-70
2023/07/16 06:02:14;;;;;;;3.10;1.53;;;19.50;15.80;;;;;;4992770;28;20200;-71
2023/07/16 06:04:39;;;;;;;4.23;1.63;;;19.60;18.00;;;;;;4993011;28;20227;-71
2023/07/16 06:07:05;;;;;;;3.20;1.50;;;19.50;16.20;;;;;;4993070;28;20231;-71
2023/07/16 06:09:31;;;;;;;2.10;1.23;;;19.50;16.20;;;;;;4993030;28;20180;-72
2023/07/16 06:11:57;;;;;;;2.57;1.30;;;19.50;18.00;;;;;;4992312;28;20408;-72
2023/07/16 06:14:22;;;;;;;2.80;1.80;;;19.60;14.30;;;;;;4993045;28;20238;-72
2023/07/16 06:16:48;;;;;;;2.93;1.70;;;19.50;14.60;;;;;;4991810;28;20287;-72
2023/07/16 06:19:14;;;;;;;3.53;1.80;;;19.70;13.40;;;;;;4991601;28;20184;-71
2023/07/16 06:21:39;;;;;;;4.90;1.70;;;19.70;15.20;;;;;;4992552;28;20653;-71
2023/07/16 06:24:06;;;;;;;2.60;1.97;;;19.70;14.10;;;;;;4992487;28;20555;-72
2023/07/16 06:26:31;;;;;;;4.47;2.10;;;19.50;13.00;;;;;;4992617;28;20172;-72
2023/07/16 06:28:57;;;;;;;4.10;1.70;;;19.50;13.60;;;;;;4993190;28;20940;-72
2023/07/16 06:31:22;;;;;;;2.20;1.50;;;19.50;15.80;;;;;;4996537;28;20639;-71
2023/07/16 06:33:49;;;;;;;4.10;1.77;;;19.60;15.30;;;;;;4995253;28;20596;-71
2023/07/16 06:36:14;;;;;;;2.33;1.90;;;19.50;13.90;;;;;;4996415;28;20168;-71
2023/07/16 06:38:40;;;;;;;3.50;1.63;;;19.50;14.50;;;;;;4996560;28;20495;-71
2023/07/16 06:41:06;;;;;;;9.20;1.77;;;19.40;14.40;;;;;;4996371;28;20174;-72
2023/07/16 06:43:32;;;;;;;5.33;1.40;;;19.60;15.80;;;;;;4995964;28;20510;-72
2023/07/16 06:45:57;;;;;;;2.90;1.80;;;19.70;14.20;;;;;;4996127;28;20200;-72
2023/07/16 06:48:23;;;;;;;4.27;2.10;;;19.70;13.70;;;;;;4994926;28;20179;-72
2023/07/16 06:50:50;;;;;;;2.73;1.90;;;19.90;13.90;;;;;;4996190;28;20540;-72
2023/07/16 06:53:15;;;;;;;2.50;1.63;;;20.50;13.90;;;;;;4995862;28;20215;-72
2023/07/16 06:55:41;;;;;;;3.03;2.10;;;21.00;10.10;;;;;;4996484;28;20886;-72
2023/07/16 06:58:10;;;;;;;2.10;1.50;;;21.80;8.80;;;;;;4995989;28;20176;-72
2023/07/16 07:00:36;;;;;;;3.70;2.00;;;22.20;8.00;;;;;;4996185;28;20199;-72
2023/07/16 07:03:02;;;;;;;2.93;1.50;;;22.70;4.40;;;;;;4995569;28;20443;-73
2023/07/16 07:05:27;;;;;;;3.40;1.50;;;22.40;4.60;;;;;;4994897;28;20240;-72
2023/07/16 07:07:53;;;;;;;2.57;1.77;;;22.20;4.50;;;;;;4995842;28;20172;-72
2023/07/16 07:10:19;;;;;;;2.90;1.90;;;22.10;4.50;;;;;;4995913;28;20267;-71
2023/07/16 07:12:44;;;;;;;4.33;2.30;;;22.60;5.70;;;;;;4995399;28;20228;-73
2023/07/16 07:15:10;;;;;;;2.53;2.13;;;23.10;1.90;;;;;;4995948;28;20181;-73
2023/07/16 07:17:35;;;;;;;2.80;2.23;;;23.60;2.70;;;;;;4995932;28;20208;-72
2023/07/16 07:20:02;;;;;;;2.60;2.40;;;25.20;1.00;;;;;;4995860;28;20172;-72
2023/07/16 07:22:28;;;;;;;4.03;3.10;;;26.80;1.00;;;;;;4994244;28;20192;-72
2023/07/16 07:24:53;;;;;;;3.20;2.90;;;27.30;1.00;;;;;;4995569;28;20455;-72
2023/07/16 07:27:19;;;;;;;3.73;3.53;;;28.30;1.00;;;;;;4995581;28;20180;-72
2023/07/16 07:29:46;;;;;;;4.90;4.60;;;29.80;1.00;;;;;;4995442;28;20169;-73
2023/07/16 07:32:11;;;;;;;4.80;4.50;;;30.90;1.00;;;;;;4995182;28;20605;-72
2023/07/16 07:34:38;;;;;;;5.90;5.43;;;31.70;1.00;;;;;;4995483;28;20416;-72
2023/07/16 07:37:04;;;;;;;6.47;5.33;;;32.50;1.00;;;;;;4995644;28;20241;-72
2023/07/16 07:39:30;;;;;;;5.97;5.60;;;33.00;1.00;;;;;;4995149;28;20817;-72
2023/07/16 07:41:55;;;;;;;5.60;5.30;;;33.60;1.00;;;;;;4994845;28;20419;-72
2023/07/16 07:44:21;;;;;;;5.90;5.50;;;34.70;1.00;;;;;;4995234;28;20231;-72
2023/07/16 07:46:46;;;;;;;5.10;4.80;;;34.60;1.00;;;;;;4995156;28;20184;-73
2023/07/16 07:49:12;;;;;;;5.67;5.27;;;34.00;1.00;;;;;;4995026;28;20177;-73
2023/07/16 07:51:38;;;;;;;5.80;5.20;;;33.70;1.00;;;;;;4995335;28;20173;-73
2023/07/16 07:54:03;;;;;;;5.97;5.57;;;32.30;1.00;;;;;;4995163;28;20225;-72
2023/07/16 07:56:30;;;;;;;5.40;5.10;;;31.50;1.00;;;;;;4995044;28;20181;-72
2023/07/16 07:58:55;;;;;;;5.73;5.43;;;32.70;1.00;;;;;;4993644;28;20176;-72
2023/07/16 08:01:21;;;;;;;6.00;5.60;;;33.40;1.00;;;;;;4995352;28;20813;-73
2023/07/16 08:03:47;;;;;;;6.20;5.70;;;33.90;1.00;;;;;;4994527;28;20203;-72
2023/07/16 08:06:13;;;;;;;7.57;5.77;;;34.10;1.00;;;;;;4994873;28;20173;-72
2023/07/16 08:08:38;;;;;;;5.40;5.10;;;33.50;1.00;;;;;;4994756;28;20887;-72
2023/07/16 08:11:04;;;;;;;5.27;4.87;;;30.50;1.00;;;;;;4994650;28;20495;-72
2023/07/16 08:13:29;;;;;;;4.97;4.67;;;30.40;1.00;;;;;;4994958;28;20240;-72
2023/07/16 08:15:55;;;;;;;5.60;5.20;;;30.90;1.00;;;;;;4995116;28;20185;-72
2023/07/16 08:18:20;;;;;;;6.30;5.23;;;30.60;1.00;;;;;;4994982;28;20192;-72
2023/07/16 08:20:47;;;;;;;5.00;4.70;;;29.70;1.00;;;;;;4994817;28;20219;-72
2023/07/16 08:23:13;;;;;;;4.93;4.53;;;30.70;1.00;;;;;;4994147;28;20193;-72
2023/07/16 08:25:38;;;;;;;4.60;4.30;;;32.30;1.00;;;;;;4993400;28;21060;-72
2023/07/16 08:28:04;;;;;;;6.97;4.83;;;31.50;1.00;;;;;;4994446;28;20169;-72
2023/07/16 08:30:32;;;;;;;4.80;4.50;;;29.80;1.00;;;;;;4994363;28;20173;-72
2023/07/16 08:32:57;;;;;;;5.80;5.00;;;30.50;1.00;;;;;;4994274;28;20436;-72
2023/07/16 08:35:23;;;;;;;5.20;4.90;;;30.10;1.00;;;;;;4994391;28;20506;-72
2023/07/16 08:37:49;;;;;;;5.33;4.93;;;30.70;1.00;;;;;;4993081;28;20235;-72
2023/07/16 08:40:14;;;;;;;4.90;4.60;;;31.40;1.00;;;;;;4994458;28;20184;-72
2023/07/16 08:42:40;;;;;;;4.93;4.63;;;31.10;1.00;;;;;;4994366;28;20192;-72
2023/07/16 08:45:08;;;;;;;4.60;4.30;;;30.50;1.00;;;;;;4994629;28;20196;-72
2023/07/16 08:47:35;;;;;;;4.90;4.60;;;30.40;1.00;;;;;;4994306;28;20422;-72
2023/07/16 08:50:01;;;;;;;10.07;4.70;;;32.80;1.00;;;;;;4994214;28;20483;-72
2023/07/16 08:52:27;;;;;;;4.80;4.40;;;33.10;1.00;;;;;;4993021;28;20530;-72
2023/07/16 08:54:54;;;;;;;5.10;4.80;;;31.20;1.00;;;;;;4994175;28;20478;-72
2023/07/16 08:57:21;;;;;;;4.27;4.00;;;29.60;1.00;;;;;;4994372;28;20426;-72
2023/07/16 08:59:48;;;;;;;3.97;3.67;;;28.40;1.00;;;;;;4994059;28;20491;-72
2023/07/16 09:02:17;;;;;;;4.10;3.80;;;27.90;1.00;;;;;;4993802;28;20435;-72
2023/07/16 09:04:42;;;;;;;4.27;3.90;;;28.00;1.00;;;;;;4993835;28;20507;-72
2023/07/16 09:07:08;;;;;;;4.90;4.50;;;31.00;1.00;;;;;;4993591;28;20454;-72
2023/07/16 09:09:33;;;;;;;4.27;3.97;;;32.20;1.00;;;;;;4993966;28;20177;-72
2023/07/16 09:11:59;;;;;;;4.03;3.73;;;32.50;1.00;;;;;;4992193;28;20173;-72
2023/07/16 09:14:25;;;;;;;5.23;4.17;;;32.30;1.00;;;;;;4993736;28;20188;-72
2023/07/16 09:16:53;;;;;;;4.80;4.50;;;30.80;1.00;;;;;;4993766;28;20181;-72
2023/07/16 09:19:20;;;;;;;4.97;4.53;;;29.80;1.00;;;;;;4993700;28;20263;-72
2023/07/16 09:21:49;;;;;;;4.43;4.07;;;28.70;1.00;;;;;;4993076;28;20416;-72
2023/07/16 09:24:16;;;;;;;4.23;3.83;;;27.20;1.00;;;;;;4993430;28;20456;-72
2023/07/16 09:26:52;;;;;;;3.70;3.50;;;26.30;1.00;;;;;;4993618;28;20944;-72
2023/07/16 09:29:19;;;;;;;4.60;3.90;;;25.90;1.00;;;;;;4993450;28;20419;-72
2023/07/16 09:31:59;;;;;;;3.53;3.33;;;26.00;1.00;;;;;;4993285;28;20781;-72
2023/07/16 09:34:28;;;;;;;3.83;3.50;;;25.80;1.00;;;;;;4993344;28;20860;-72
2023/07/16 09:36:54;;;;;;;4.53;3.37;;;26.40;1.00;;;;;;4993100;28;20416;-72
2023/07/16 09:39:20;;;;;;;3.63;3.43;;;26.20;1.00;;;;;;4993085;28;20481;-72
2023/07/16 09:41:49;;;;;;;7.27;3.80;;;26.10;1.00;;;;;;4992879;28;20255;-72
2023/07/16 09:44:16;;;;;;;5.13;3.50;;;25.80;1.00;;;;;;4993202;28;20533;-72
2023/07/16 09:46:43;;;;;;;3.50;3.20;;;25.90;1.00;;;;;;4993197;28;20412;-72
2023/07/16 09:49:09;;;;;;;3.70;3.40;;;25.80;1.00;;;;;;4993097;28;20404;-72
2023/07/16 09:51:39;;;;;;;5.13;4.77;;;26.10;1.00;;;;;;4992855;28;20416;-72
2023/07/16 09:54:08;;;;;;;4.00;3.70;;;26.30;1.00;;;;;;4993035;28;20439;-72
2023/07/16 09:56:47;;;;;;;3.70;3.40;;;25.90;1.00;;;;;;4993087;28;20418;-72
2023/07/16 09:59:19;;;;;;;4.40;4.00;;;25.70;1.00;;;;;;4993462;28;20411;-72
2023/07/16 10:01:45;;;;;;;5.20;3.53;;;25.30;1.00;;;;;;4992670;28;20462;-72
2023/07/16 10:04:16;;;;;;;3.90;3.60;;;25.00;1.00;;;;;;4991880;28;20861;-72
2023/07/16 10:06:56;;;;;;;3.50;3.30;;;25.00;1.00;;;;;;4992934;28;20172;-72
2023/07/16 10:09:51;;;;;;;3.80;3.50;;;25.00;1.00;;;;;;4993010;28;20416;-72
2023/07/16 10:12:20;;;;;;;3.90;3.60;;;25.80;1.00;;;;;;4992419;28;20459;-72
2023/07/16 10:14:47;;;;;;;3.93;3.53;;;26.00;1.00;;;;;;4993308;28;20808;-72
2023/07/16 10:17:23;;;;;;;3.97;3.60;;;25.90;1.00;;;;;;4991517;28;20428;-72
2023/07/16 10:20:07;;;;;;;3.60;3.30;;;25.70;1.00;;;;;;4992745;28;20498;-72
2023/07/16 10:22:41;;;;;;;4.17;3.20;;;25.90;1.00;;;;;;4992382;28;20899;-72
2023/07/16 10:25:21;;;;;;;5.17;3.70;;;26.30;1.00;;;;;;4992924;28;20541;-72
2023/07/16 10:27:49;;;;;;;4.47;4.07;;;26.50;1.00;;;;;;4992844;28;20410;-73
2023/07/16 10:30:16;;;;;;;3.90;3.40;;;27.00;1.00;;;;;;4991371;28;20420;-72
2023/07/16 10:32:42;;;;;;;4.50;4.07;;;26.30;1.00;;;;;;4992298;28;20800;-72
2023/07/16 10:35:09;;;;;;;3.80;3.50;;;26.30;1.00;;;;;;4992828;28;20447;-72
2023/07/16 10:37:35;;;;;;;3.73;3.37;;;26.30;1.00;;;;;;4993016;28;20412;-72
2023/07/16 10:40:03;;;;;;;4.00;3.60;;;26.00;1.00;;;;;;4992844;28;20408;-72
2023/07/16 10:42:29;;;;;;;3.97;3.67;;;25.60;1.00;;;;;;4991187;28;20526;-72
2023/07/16 10:44:58;;;;;;;4.23;3.83;;;25.30;1.00;;;;;;4992913;28;20630;-71
2023/07/16 10:47:32;;;;;;;4.00;3.60;;;25.60;1.00;;;;;;4992503;28;21051;-71
2023/07/16 10:49:58;;;;;;;4.47;3.37;;;25.70;1.00;;;;;;4992965;28;20408;-71
2023/07/16 10:52:24;;;;;;;4.03;3.00;;;25.50;1.00;;;;;;4992747;28;20526;-71
2023/07/16 10:54:57;;;;;;;6.43;3.87;;;25.80;1.00;;;;;;4992855;28;20423;-71
2023/07/16 10:57:24;;;;;;;6.87;4.07;;;26.20;1.00;;;;;;4993356;28;20420;-71
2023/07/16 10:59:51;;;;;;;4.50;3.27;;;26.50;1.00;;;;;;4992518;28;20415;-71
2023/07/16 11:02:18;;;;;;;4.60;4.20;;;26.80;1.00;;;;;;4992262;28;20516;-71
2023/07/16 11:04:45;;;;;;;4.40;4.10;;;26.80;1.00;;;;;;4992438;28;20973;-71
2023/07/16 11:07:12;;;;;;;5.20;3.90;;;26.70;1.00;;;;;;4992378;28;20423;-71
2023/07/16 11:09:44;;;;;;;3.37;3.17;;;26.40;1.00;;;;;;4991162;28;20412;-71
2023/07/16 11:12:12;;;;;;;4.33;3.80;;;26.20;1.00;;;;;;4991771;28;20450;-71
2023/07/16 11:14:42;;;;;;;2.97;2.77;;;26.40;1.00;;;;;;4992980;28;20419;-71
2023/07/16 11:17:09;;;;;;;5.87;4.23;;;26.60;1.00;;;;;;4996273;28;20408;-71
2023/07/16 11:19:35;;;;;;;4.07;3.30;;;26.80;1.00;;;;;;4995840;28;20412;-71
2023/07/16 11:22:02;;;;;;;5.10;3.83;;;27.00;1.00;;;;;;4995719;28;20447;-72
2023/07/16 11:24:28;;;;;;;4.00;3.70;;;27.40;1.00;;;;;;4995718;28;20470;-71
2023/07/16 11:26:56;;;;;;;3.90;3.60;;;27.40;1.00;;;;;;4995841;28;20902;-72
2023/07/16 11:29:23;;;;;;;4.43;3.87;;;27.70;1.00;;;;;;4995788;28;20173;-72
2023/07/16 11:31:52;;;;;;;3.90;3.60;;;28.20;1.00;;;;;;4995633;28;20497;-72
2023/07/16 11:34:21;;;;;;;4.20;3.90;;;28.00;1.00;;;;;;4995654;28;20551;-71
2023/07/16 11:36:48;;;;;;;4.20;3.90;;;27.50;1.00;;;;;;4995581;28;20878;-71
2023/07/16 11:39:17;;;;;;;3.90;3.60;;;27.50;1.00;;;;;;4995559;28;20546;-71
2023/07/16 11:41:53;;;;;;;4.67;4.27;;;27.30;1.00;;;;;;4995189;28;20487;-71
2023/07/16 11:44:19;;;;;;;8.73;4.20;;;27.40;1.00;;;;;;4995269;28;20451;-71
2023/07/16 11:46:46;;;;;;;4.00;3.70;;;27.20;1.00;;;;;;4995144;28;20539;-71
2023/07/16 11:49:12;;;;;;;6.27;4.33;;;27.00;1.00;;;;;;4995013;28;20404;-71
2023/07/16 11:51:37;;;;;;;7.87;3.97;;;27.00;1.00;;;;;;4995121;28;20420;-71
2023/07/16 11:54:03;;;;;;;4.00;3.70;;;27.10;1.00;;;;;;4995218;28;20197;-71
2023/07/16 11:56:29;;;;;;;3.87;3.57;;;26.70;1.00;;;;;;4995528;28;20176;-71
2023/07/16 11:58:54;;;;;;;4.33;3.97;;;26.80;1.00;;;;;;4995346;28;20282;-71
2023/07/16 12:01:20;;;;;;;4.33;4.03;;;26.50;1.00;;;;;;4995022;28;20176;-71
2023/07/16 12:03:46;;;;;;;4.60;4.17;;;26.40;1.00;;;;;;4994944;28;20556;-71
2023/07/16 12:06:14;;;;;;;4.30;3.50;;;26.40;1.00;;;;;;4995003;28;20200;-71
2023/07/16 12:08:40;;;;;;;4.73;3.97;;;26.30;1.00;;;;;;4995014;28;20415;-71
2023/07/16 12:11:05;;;;;;;5.70;4.00;;;25.80;1.00;;;;;;4995046;28;20473;-71
2023/07/16 12:13:31;;;;;;;4.47;4.07;;;25.90;1.00;;;;;;4993301;28;20693;-71
2023/07/16 12:15:56;;;;;;;3.70;3.40;;;25.80;1.00;;;;;;4995105;28;20546;-72
2023/07/16 12:18:22;;;;;;;3.93;3.63;;;25.70;1.00;;;;;;4994715;28;20239;-72
2023/07/16 12:20:48;;;;;;;3.60;3.40;;;25.60;1.00;;;;;;4995059;28;20188;-71
2023/07/16 12:23:13;;;;;;;4.40;4.00;;;25.60;1.00;;;;;;4994954;28;20201;-71
2023/07/16 12:25:39;;;;;;;4.33;4.03;;;25.70;1.00;;;;;;4993714;28;20201;-71
2023/07/16 12:28:05;;;;;;;4.03;3.73;;;25.90;1.00;;;;;;4994080;28;20176;-71
2023/07/16 12:30:30;;;;;;;5.23;4.73;;;25.90;1.00;;;;;;4994835;28;20199;-71
2023/07/16 12:32:56;;;;;;;4.20;3.90;;;26.10;1.00;;;;;;4993086;28;20564;-72
2023/07/16 12:35:22;;;;;;;4.70;4.30;;;26.00;1.00;;;;;;4994768;28;20606;-71
2023/07/16 12:37:47;;;;;;;3.93;3.60;;;26.10;1.00;;;;;;4994718;28;20187;-71
2023/07/16 12:40:17;;;;;;;4.50;4.10;;;26.20;1.00;;;;;;4994644;28;20176;-70
2023/07/16 12:42:42;;;;;;;3.63;3.43;;;26.40;1.00;;;;;;4994145;28;20201;-71
2023/07/16 12:45:08;;;;;;;4.20;3.80;;;26.50;1.00;;;;;;4994537;28;20814;-71
2023/07/16 12:47:35;;;;;;;6.27;4.47;;;26.60;1.00;;;;;;4994679;28;20717;-72